Pagrindinis puslapis
METAR-TAF:

METAR-TAF

Oro uostai :

Trondheimas, Norvegija

platuma: 63-28N, ilguma: 010-56E, Aukštis: 1 m

Dabartinis oras

Ataskaita buvo paskelbta 18 minutes, ne 12:50 UTC
Vėjas 3 kt iš Rytų
Temperatūra -6°C
Drėgmė 86%
Slėgis 996 hPa
Matomumas 10 km arba daugiau
Išsisklaidę debesys ne aukštis 2100 ft
Su prošvaistėmis ne aukštis 3300 ft

METAR: ENVA 021250Z 09003KT 9999 SCT021 BKN033 M06/M08 Q0996 NOSIG RMK WIND 670FT 07004KT

Laikas: 14:08 (13:08 UTC)

Prognozė

Prognozė galioja nuo 02 metu 12 UTC su 03 metu 12 UTC
Vėjas 7 kt iš Rytų
Matomumas 10 km arba daugiau
Mažai debesys ne aukštis 1500 ft
Išsisklaidę debesys ne aukštis 3000 ft

TAF: ENVA 0212/0312 08007KT 9999 FEW015 SCT030

Orai ataskaitas ir orų prognozės (METAR, TAF).

turimą stotys yra geltonos ir raudonos taškus žemėlapyje.

Perkelti pele per norėdami pamatyti stoties vardą.

Tada spustelėkite, norėdami matyti oro stebėjimo ir prognozės.

Norėdami pakeisti žemėlapį: spustelėkite ant žalios mygtukų su juodo kryžiaus žemyn,; žalią mygtuką su brūkšneliu, jei norite nutolinti; arba žalių rodyklių gretimoms žemėlapius.


METAR-TAF: